sensor_id;sensor_type;location;lat;lon;timestamp;P1;durP1;ratioP1;P2;durP2;ratioP2
57343;SDS011;43180;50.974;18.172;2023-12-29T00:02:58;26.30;;;13.10;;
57343;SDS011;43180;50.974;18.172;2023-12-29T00:12:40;48.80;;;13.60;;
57343;SDS011;43180;50.974;18.172;2023-12-29T00:22:33;25.30;;;11.70;;
57343;SDS011;43180;50.974;18.172;2023-12-29T00:32:15;34.00;;;19.00;;
57343;SDS011;43180;50.974;18.172;2023-12-29T00:37:06;42.10;;;20.70;;
57343;SDS011;43180;50.974;18.172;2023-12-29T00:46:55;31.20;;;14.10;;
57343;SDS011;43180;50.974;18.172;2023-12-29T00:56:38;26.00;;;8.80;;
57343;SDS011;43180;50.974;18.172;2023-12-29T01:06:24;51.00;;;22.30;;
57343;SDS011;43180;50.974;18.172;2023-12-29T01:16:06;21.80;;;10.20;;
57343;SDS011;43180;50.974;18.172;2023-12-29T01:25:48;24.30;;;11.00;;
57343;SDS011;43180;50.974;18.172;2023-12-29T01:35:30;53.30;;;23.80;;
57343;SDS011;43180;50.974;18.172;2023-12-29T01:45:22;34.40;;;12.80;;
57343;SDS011;43180;50.974;18.172;2023-12-29T01:55:07;46.00;;;3.80;;
57343;SDS011;43180;50.974;18.172;2023-12-29T02:04:52;17.40;;;7.50;;
57343;SDS011;43180;50.974;18.172;2023-12-29T02:14:35;34.60;;;15.00;;
57343;SDS011;43180;50.974;18.172;2023-12-29T02:24:24;20.70;;;11.00;;
57343;SDS011;43180;50.974;18.172;2023-12-29T02:34:07;30.60;;;9.90;;
57343;SDS011;43180;50.974;18.172;2023-12-29T02:43:50;14.80;;;8.20;;
57343;SDS011;43180;50.974;18.172;2023-12-29T02:53:33;19.10;;;6.60;;
57343;SDS011;43180;50.974;18.172;2023-12-29T03:03:15;23.20;;;10.20;;
57343;SDS011;43180;50.974;18.172;2023-12-29T03:12:57;16.90;;;5.40;;
57343;SDS011;43180;50.974;18.172;2023-12-29T03:22:39;20.00;;;12.10;;
57343;SDS011;43180;50.974;18.172;2023-12-29T03:32:22;23.20;;;9.80;;
57343;SDS011;43180;50.974;18.172;2023-12-29T03:42:04;18.30;;;7.70;;
57343;SDS011;43180;50.974;18.172;2023-12-29T03:51:46;10.10;;;4.80;;
57343;SDS011;43180;50.974;18.172;2023-12-29T04:01:28;16.80;;;8.00;;
57343;SDS011;43180;50.974;18.172;2023-12-29T04:11:11;16.20;;;5.00;;
57343;SDS011;43180;50.974;18.172;2023-12-29T04:18:28;26.80;;;14.60;;
57343;SDS011;43180;50.974;18.172;2023-12-29T04:28:11;19.40;;;7.60;;
57343;SDS011;43180;50.974;18.172;2023-12-29T04:37:54;13.70;;;7.50;;
57343;SDS011;43180;50.974;18.172;2023-12-29T04:47:36;13.10;;;7.10;;
57343;SDS011;43180;50.974;18.172;2023-12-29T04:57:19;13.90;;;6.00;;
57343;SDS011;43180;50.974;18.172;2023-12-29T05:07:04;19.50;;;4.80;;
57343;SDS011;43180;50.974;18.172;2023-12-29T05:16:47;16.30;;;6.20;;
57343;SDS011;43180;50.974;18.172;2023-12-29T05:26:31;9.40;;;4.90;;
57343;SDS011;43180;50.974;18.172;2023-12-29T05:36:13;9.40;;;3.80;;
57343;SDS011;43180;50.974;18.172;2023-12-29T05:46:00;15.50;;;9.10;;
57343;SDS011;43180;50.974;18.172;2023-12-29T05:55:43;14.90;;;7.30;;
57343;SDS011;43180;50.974;18.172;2023-12-29T06:05:26;24.30;;;11.90;;
57343;SDS011;43180;50.974;18.172;2023-12-29T06:15:08;19.20;;;7.80;;
57343;SDS011;43180;50.974;18.172;2023-12-29T06:24:53;13.60;;;7.40;;
57343;SDS011;43180;50.974;18.172;2023-12-29T06:34:35;31.10;;;14.90;;
57343;SDS011;43180;50.974;18.172;2023-12-29T06:44:17;7.80;;;4.60;;
57343;SDS011;43180;50.974;18.172;2023-12-29T06:54:01;19.50;;;7.40;;
57343;SDS011;43180;50.974;18.172;2023-12-29T07:03:43;22.10;;;9.50;;
57343;SDS011;43180;50.974;18.172;2023-12-29T07:13:26;6.00;;;3.40;;
57343;SDS011;43180;50.974;18.172;2023-12-29T07:23:09;32.40;;;10.20;;
57343;SDS011;43180;50.974;18.172;2023-12-29T07:32:51;11.80;;;6.60;;
57343;SDS011;43180;50.974;18.172;2023-12-29T07:42:36;14.60;;;6.70;;
57343;SDS011;43180;50.974;18.172;2023-12-29T07:52:19;19.90;;;11.30;;
57343;SDS011;43180;50.974;18.172;2023-12-29T08:02:01;15.10;;;6.10;;
57343;SDS011;43180;50.974;18.172;2023-12-29T08:19:06;20.00;;;7.60;;
57343;SDS011;43180;50.974;18.172;2023-12-29T08:28:49;14.80;;;9.10;;
57343;SDS011;43180;50.974;18.172;2023-12-29T08:38:32;26.50;;;8.60;;
57343;SDS011;43180;50.974;18.172;2023-12-29T08:48:14;13.70;;;6.90;;
57343;SDS011;43180;50.974;18.172;2023-12-29T08:57:59;15.00;;;7.50;;
57343;SDS011;43180;50.974;18.172;2023-12-29T09:07:41;15.20;;;7.20;;
57343;SDS011;43180;50.974;18.172;2023-12-29T09:17:25;11.30;;;5.10;;
57343;SDS011;43180;50.974;18.172;2023-12-29T09:27:07;9.40;;;4.40;;
57343;SDS011;43180;50.974;18.172;2023-12-29T09:36:49;10.40;;;5.40;;
57343;SDS011;43180;50.974;18.172;2023-12-29T09:46:35;11.10;;;6.60;;
57343;SDS011;43180;50.974;18.172;2023-12-29T09:56:19;6.70;;;4.50;;
57343;SDS011;43180;50.974;18.172;2023-12-29T10:06:03;7.20;;;4.30;;
57343;SDS011;43180;50.974;18.172;2023-12-29T10:16:02;12.10;;;3.50;;
57343;SDS011;43180;50.974;18.172;2023-12-29T10:26:46;7.60;;;4.10;;
57343;SDS011;43180;50.974;18.172;2023-12-29T10:36:48;1.90;;;1.50;;
57343;SDS011;43180;50.974;18.172;2023-12-29T10:46:33;4.00;;;2.70;;
57343;SDS011;43180;50.974;18.172;2023-12-29T10:56:29;7.40;;;2.80;;
57343;SDS011;43180;50.974;18.172;2023-12-29T11:06:39;14.40;;;2.50;;
57343;SDS011;43180;50.974;18.172;2023-12-29T11:16:29;5.60;;;2.90;;
57343;SDS011;43180;50.974;18.172;2023-12-29T11:26:14;3.50;;;1.90;;
57343;SDS011;43180;50.974;18.172;2023-12-29T11:36:15;3.10;;;1.50;;
57343;SDS011;43180;50.974;18.172;2023-12-29T11:46:26;11.00;;;3.00;;
57343;SDS011;43180;50.974;18.172;2023-12-29T11:56:31;5.70;;;3.20;;
57343;SDS011;43180;50.974;18.172;2023-12-29T12:06:38;14.20;;;5.60;;
57343;SDS011;43180;50.974;18.172;2023-12-29T12:17:00;4.50;;;2.20;;
57343;SDS011;43180;50.974;18.172;2023-12-29T12:26:45;12.30;;;4.10;;
57343;SDS011;43180;50.974;18.172;2023-12-29T12:36:48;6.40;;;3.40;;
57343;SDS011;43180;50.974;18.172;2023-12-29T12:46:35;6.60;;;3.10;;
57343;SDS011;43180;50.974;18.172;2023-12-29T12:56:45;5.40;;;2.50;;
57343;SDS011;43180;50.974;18.172;2023-12-29T13:06:28;8.80;;;3.30;;
57343;SDS011;43180;50.974;18.172;2023-12-29T13:16:34;0.30;;;0.30;;
57343;SDS011;43180;50.974;18.172;2023-12-29T13:26:41;2.70;;;1.70;;
57343;SDS011;43180;50.974;18.172;2023-12-29T13:36:35;5.20;;;2.40;;
57343;SDS011;43180;50.974;18.172;2023-12-29T13:46:25;2.90;;;1.70;;
57343;SDS011;43180;50.974;18.172;2023-12-29T13:56:10;3.80;;;2.50;;
57343;SDS011;43180;50.974;18.172;2023-12-29T14:06:07;3.60;;;1.80;;
57343;SDS011;43180;50.974;18.172;2023-12-29T14:16:01;3.80;;;1.80;;
57343;SDS011;43180;50.974;18.172;2023-12-29T14:25:43;7.50;;;2.90;;
57343;SDS011;43180;50.974;18.172;2023-12-29T14:35:33;7.20;;;2.90;;
57343;SDS011;43180;50.974;18.172;2023-12-29T14:45:16;3.60;;;2.40;;
57343;SDS011;43180;50.974;18.172;2023-12-29T14:54:59;8.10;;;3.80;;
57343;SDS011;43180;50.974;18.172;2023-12-29T15:04:41;21.10;;;6.40;;
57343;SDS011;43180;50.974;18.172;2023-12-29T15:14:27;19.90;;;8.70;;
57343;SDS011;43180;50.974;18.172;2023-12-29T15:21:44;14.00;;;6.80;;
57343;SDS011;43180;50.974;18.172;2023-12-29T15:31:28;8.60;;;4.30;;
57343;SDS011;43180;50.974;18.172;2023-12-29T15:41:16;11.30;;;3.90;;
57343;SDS011;43180;50.974;18.172;2023-12-29T15:51:08;35.10;;;5.60;;
57343;SDS011;43180;50.974;18.172;2023-12-29T16:00:53;18.60;;;9.40;;
57343;SDS011;43180;50.974;18.172;2023-12-29T16:08:11;70.10;;;28.50;;
57343;SDS011;43180;50.974;18.172;2023-12-29T16:17:57;28.60;;;9.80;;
57343;SDS011;43180;50.974;18.172;2023-12-29T16:27:41;66.00;;;20.40;;
57343;SDS011;43180;50.974;18.172;2023-12-29T16:37:25;24.80;;;11.20;;
57343;SDS011;43180;50.974;18.172;2023-12-29T16:47:11;43.20;;;14.60;;
57343;SDS011;43180;50.974;18.172;2023-12-29T16:57:02;103.40;;;26.90;;
57343;SDS011;43180;50.974;18.172;2023-12-29T17:06:46;120.60;;;24.50;;
57343;SDS011;43180;50.974;18.172;2023-12-29T17:16:32;46.40;;;14.80;;
57343;SDS011;43180;50.974;18.172;2023-12-29T17:21:24;59.70;;;20.20;;
57343;SDS011;43180;50.974;18.172;2023-12-29T17:31:07;114.30;;;38.60;;
57343;SDS011;43180;50.974;18.172;2023-12-29T17:40:49;90.90;;;30.10;;
57343;SDS011;43180;50.974;18.172;2023-12-29T17:50:31;33.60;;;10.90;;
57343;SDS011;43180;50.974;18.172;2023-12-29T18:00:14;24.30;;;6.60;;
57343;SDS011;43180;50.974;18.172;2023-12-29T18:09:57;30.10;;;8.40;;
57343;SDS011;43180;50.974;18.172;2023-12-29T18:19:48;14.20;;;9.40;;
57343;SDS011;43180;50.974;18.172;2023-12-29T18:29:34;38.70;;;9.00;;
57343;SDS011;43180;50.974;18.172;2023-12-29T18:39:16;20.80;;;7.80;;
57343;SDS011;43180;50.974;18.172;2023-12-29T18:48:58;17.00;;;6.70;;
57343;SDS011;43180;50.974;18.172;2023-12-29T18:58:42;21.30;;;8.00;;
57343;SDS011;43180;50.974;18.172;2023-12-29T19:08:26;18.80;;;6.10;;
57343;SDS011;43180;50.974;18.172;2023-12-29T19:18:10;25.30;;;5.90;;
57343;SDS011;43180;50.974;18.172;2023-12-29T19:27:55;14.40;;;4.40;;
57343;SDS011;43180;50.974;18.172;2023-12-29T19:37:45;15.50;;;7.70;;
57343;SDS011;43180;50.974;18.172;2023-12-29T19:47:30;12.00;;;5.60;;
57343;SDS011;43180;50.974;18.172;2023-12-29T19:57:15;26.10;;;8.10;;
57343;SDS011;43180;50.974;18.172;2023-12-29T20:06:58;7.80;;;3.80;;
57343;SDS011;43180;50.974;18.172;2023-12-29T20:16:40;14.30;;;5.30;;
57343;SDS011;43180;50.974;18.172;2023-12-29T20:26:24;12.70;;;3.70;;
57343;SDS011;43180;50.974;18.172;2023-12-29T20:36:18;9.70;;;7.40;;
57343;SDS011;43180;50.974;18.172;2023-12-29T20:46:04;5.80;;;3.90;;
57343;SDS011;43180;50.974;18.172;2023-12-29T20:55:47;10.10;;;2.60;;
57343;SDS011;43180;50.974;18.172;2023-12-29T21:05:32;7.90;;;2.50;;
57343;SDS011;43180;50.974;18.172;2023-12-29T21:15:15;18.00;;;7.50;;
57343;SDS011;43180;50.974;18.172;2023-12-29T21:24:58;74.90;;;22.60;;
57343;SDS011;43180;50.974;18.172;2023-12-29T21:34:48;13.80;;;8.30;;
57343;SDS011;43180;50.974;18.172;2023-12-29T21:44:32;21.50;;;8.10;;
57343;SDS011;43180;50.974;18.172;2023-12-29T21:54:14;24.70;;;4.40;;
57343;SDS011;43180;50.974;18.172;2023-12-29T22:03:59;15.90;;;4.10;;
57343;SDS011;43180;50.974;18.172;2023-12-29T22:13:44;22.20;;;2.90;;
57343;SDS011;43180;50.974;18.172;2023-12-29T22:23:28;9.30;;;3.90;;
57343;SDS011;43180;50.974;18.172;2023-12-29T22:33:10;14.30;;;5.60;;
57343;SDS011;43180;50.974;18.172;2023-12-29T22:42:52;17.10;;;4.90;;
57343;SDS011;43180;50.974;18.172;2023-12-29T22:52:34;8.30;;;3.50;;
57343;SDS011;43180;50.974;18.172;2023-12-29T23:02:18;3.20;;;2.70;;
57343;SDS011;43180;50.974;18.172;2023-12-29T23:12:05;9.70;;;4.20;;
57343;SDS011;43180;50.974;18.172;2023-12-29T23:21:50;4.20;;;3.20;;
57343;SDS011;43180;50.974;18.172;2023-12-29T23:31:32;6.40;;;2.20;;
57343;SDS011;43180;50.974;18.172;2023-12-29T23:41:14;5.20;;;2.10;;
57343;SDS011;43180;50.974;18.172;2023-12-29T23:51:09;1.80;;;1.70;;
